Time;durP1;ratioP1;P1;durP2;ratioP2;P2;SDS_P1;SDS_P2;PMS_P1;PMS_P2;Temp;Humidity;BMP_temperature;BMP_pressure;BME280_temperature;BME280_humidity;BME280_pressure;Samples;Min_cycle;Max_cycle;Signal;HPM_P1;HPM_P2
2021/12/26 00:01:12;;;;;;;30.47;16.60;;;;;;;-10.84;100.00;100690.28;5025368;28;20228;-72
2021/12/26 00:03:40;;;;;;;31.10;15.02;;;;;;;-10.91;100.00;100689.91;5030936;28;20869;-72
2021/12/26 00:06:11;;;;;;;35.83;15.20;;;;;;;-10.96;100.00;100692.91;5029047;28;20195;-72
2021/12/26 00:08:39;;;;;;;30.45;15.40;;;;;;;-10.92;100.00;100697.34;5032893;28;20206;-72
2021/12/26 00:11:07;;;;;;;37.42;15.45;;;;;;;-10.88;100.00;100696.78;5027485;28;20234;-72
2021/12/26 00:13:34;;;;;;;29.48;16.30;;;;;;;-10.83;100.00;100694.53;5023144;28;20208;-72
2021/12/26 00:16:02;;;;;;;27.13;14.10;;;;;;;-10.94;100.00;100693.88;5033574;28;20202;-72
2021/12/26 00:18:28;;;;;;;25.95;15.02;;;;;;;-10.86;100.00;100693.56;5034547;28;20662;-72
2021/12/26 00:20:54;;;;;;;30.02;14.82;;;;;;;-11.00;100.00;100684.31;5038162;28;20234;-72
2021/12/26 00:23:23;;;;;;;28.17;14.43;;;;;;;-11.29;100.00;100683.38;5040899;28;20221;-72
2021/12/26 00:25:49;;;;;;;30.17;14.60;;;;;;;-11.19;100.00;100681.44;5029754;28;20205;-72
2021/12/26 00:28:17;;;;;;;26.63;14.15;;;;;;;-11.02;100.00;100687.53;5029949;28;20197;-72
2021/12/26 00:30:44;;;;;;;28.20;14.73;;;;;;;-11.02;100.00;100683.34;5037650;28;20660;-72
2021/12/26 00:33:11;;;;;;;28.90;14.50;;;;;;;-11.08;100.00;100693.03;5030276;28;20555;-72
2021/12/26 00:35:37;;;;;;;28.53;15.20;;;;;;;-10.93;100.00;100690.59;5035670;28;20815;-71
2021/12/26 00:38:04;;;;;;;32.70;14.23;;;;;;;-10.82;100.00;100694.63;5032174;28;20480;-71
2021/12/26 00:40:32;;;;;;;33.67;14.90;;;;;;;-10.95;100.00;100690.50;5035042;28;20251;-70
2021/12/26 00:42:59;;;;;;;28.90;15.10;;;;;;;-10.92;100.00;100692.31;5030825;28;20213;-71
2021/12/26 00:45:26;;;;;;;24.52;14.02;;;;;;;-11.19;100.00;100692.38;5018510;28;20209;-71
2021/12/26 00:47:53;;;;;;;28.17;13.93;;;;;;;-11.19;100.00;100694.03;5033549;28;20225;-71
2021/12/26 00:50:24;;;;;;;25.80;14.18;;;;;;;-11.60;100.00;100694.81;5033097;28;20328;-71
2021/12/26 00:52:51;;;;;;;30.20;13.27;;;;;;;-11.83;100.00;100709.31;5030550;28;20206;-71
2021/12/26 00:55:18;;;;;;;21.02;11.88;;;;;;;-11.52;100.00;100696.16;5033631;28;20198;-71
2021/12/26 00:57:46;;;;;;;30.20;13.38;;;;;;;-11.15;100.00;100695.94;5029705;28;20240;-71
2021/12/26 01:00:18;;;;;;;28.42;13.00;;;;;;;-11.21;100.00;100698.09;5039684;28;20228;-71
2021/12/26 01:02:46;;;;;;;27.50;12.27;;;;;;;-11.14;100.00;100692.66;5022976;28;20213;-71
2021/12/26 01:05:14;;;;;;;22.15;11.68;;;;;;;-11.25;100.00;100700.41;5032895;28;20212;-71
2021/12/26 01:07:52;;;;;;;18.90;11.88;;;;;;;-11.51;100.00;100695.41;5036463;28;20203;-71
2021/12/26 01:10:21;;;;;;;23.98;11.73;;;;;;;-11.76;100.00;100696.34;5029634;28;20653;-71
2021/12/26 01:12:50;;;;;;;21.27;11.35;;;;;;;-11.84;100.00;100698.34;5024962;28;20205;-70
2021/12/26 01:15:22;;;;;;;22.88;11.70;;;;;;;-11.74;100.00;100688.91;5035569;28;20245;-71
2021/12/26 01:17:55;;;;;;;19.08;10.23;;;;;;;-11.58;100.00;100685.72;5030574;28;20247;-71
2021/12/26 01:20:40;;;;;;;23.83;11.13;;;;;;;-11.39;100.00;100687.75;5044278;28;20770;-70
2021/12/26 01:23:08;;;;;;;20.73;9.80;;;;;;;-11.35;100.00;100687.16;5040078;28;20675;-71
2021/12/26 01:25:35;;;;;;;23.45;11.63;;;;;;;-11.23;100.00;100693.81;5026162;28;20214;-70
2021/12/26 01:28:04;;;;;;;16.98;9.93;;;;;;;-11.23;100.00;100687.94;5011726;28;20259;-71
2021/12/26 01:30:31;;;;;;;18.65;9.77;;;;;;;-11.57;100.00;100693.38;5048158;28;20221;-71
2021/12/26 01:32:59;;;;;;;26.75;9.85;;;;;;;-11.78;100.00;100684.44;5037624;28;20208;-70
2021/12/26 01:35:56;;;;;;;18.17;10.05;;;;;;;-11.35;100.00;100690.53;5028756;28;20204;-71
2021/12/26 01:39:02;;;;;;;16.95;8.90;;;;;;;-11.55;100.00;100691.81;5028304;28;20216;-71
2021/12/26 01:41:33;;;;;;;22.45;9.80;;;;;;;-11.43;100.00;100695.09;5027145;28;20321;-71
2021/12/26 01:44:17;;;;;;;17.02;8.93;;;;;;;-11.26;100.00;100681.03;5028555;28;20217;-70
2021/12/26 01:46:49;;;;;;;17.40;8.75;;;;;;;-11.40;100.00;100688.53;5034792;28;20229;-71
2021/12/26 01:49:21;;;;;;;19.73;10.35;;;;;;;-11.47;100.00;100685.59;5022611;28;20596;-71
2021/12/26 01:51:50;;;;;;;18.15;9.60;;;;;;;-11.45;100.00;100689.09;5033817;28;20230;-71
2021/12/26 01:54:28;;;;;;;16.13;8.90;;;;;;;-11.41;100.00;100687.66;5041481;28;20211;-71
2021/12/26 01:56:55;;;;;;;14.82;9.32;;;;;;;-11.28;100.00;100694.31;5037949;28;20589;-71
2021/12/26 01:59:23;;;;;;;17.73;9.98;;;;;;;-11.44;100.00;100697.53;5025520;28;20218;-71
2021/12/26 02:01:56;;;;;;;17.23;8.77;;;;;;;-11.34;100.00;100691.41;5034819;28;20233;-71
2021/12/26 02:04:26;;;;;;;19.88;8.55;;;;;;;-11.30;100.00;100689.19;5029013;28;20254;-70
2021/12/26 02:06:52;;;;;;;16.55;8.55;;;;;;;-11.28;100.00;100691.81;5035492;28;20202;-71
2021/12/26 02:09:19;;;;;;;17.50;8.98;;;;;;;-11.48;100.00;100686.41;5019007;28;20210;-71
2021/12/26 02:11:46;;;;;;;15.98;8.93;;;;;;;-11.19;100.00;100681.44;5024420;28;20677;-71
2021/12/26 02:14:17;;;;;;;18.38;8.40;;;;;;;-11.38;100.00;100686.97;5035750;28;20257;-71
2021/12/26 02:17:05;;;;;;;18.27;9.10;;;;;;;-11.69;100.00;100685.03;5046065;28;20199;-71
2021/12/26 02:19:32;;;;;;;16.52;8.43;;;;;;;-11.83;100.00;100681.63;5037636;28;20210;-70
2021/12/26 02:22:07;;;;;;;14.45;8.02;;;;;;;-11.60;100.00;100684.75;5026255;28;20294;-71
2021/12/26 02:24:55;;;;;;;17.35;8.10;;;;;;;-11.44;100.00;100688.31;5021216;28;20209;-71
2021/12/26 02:27:31;;;;;;;15.20;8.63;;;;;;;-11.28;100.00;100686.78;5028142;28;20208;-71
2021/12/26 02:29:58;;;;;;;17.58;8.38;;;;;;;-11.40;100.00;100689.38;5022105;28;20263;-70
2021/12/26 02:32:25;;;;;;;19.15;8.88;;;;;;;-11.35;100.00;100684.66;5024946;28;20203;-71
2021/12/26 02:34:52;;;;;;;19.02;9.18;;;;;;;-11.28;100.00;100682.59;5034849;28;20269;-71
2021/12/26 02:37:20;;;;;;;14.02;8.50;;;;;;;-11.24;100.00;100687.06;5043059;28;20211;-71
2021/12/26 02:39:46;;;;;;;15.25;7.95;;;;;;;-11.98;100.00;100681.53;5045683;28;20214;-71
2021/12/26 02:42:13;;;;;;;20.40;9.73;;;;;;;-11.94;100.00;100682.59;5036878;28;20701;-70
2021/12/26 02:44:41;;;;;;;17.13;9.52;;;;;;;-11.53;100.00;100675.16;5024548;28;20209;-71
2021/12/26 02:47:07;;;;;;;12.70;7.90;;;;;;;-11.49;100.00;100674.56;5030384;28;20219;-70
2021/12/26 02:49:34;;;;;;;18.30;9.43;;;;;;;-11.32;100.00;100670.59;5042231;28;20203;-71
2021/12/26 02:52:00;;;;;;;18.90;8.75;;;;;;;-11.40;100.00;100680.97;5036045;28;20717;-70
2021/12/26 02:54:28;;;;;;;16.83;7.63;;;;;;;-11.33;100.00;100678.91;5031087;28;20216;-70
2021/12/26 02:56:56;;;;;;;13.60;7.97;;;;;;;-11.31;100.00;100674.88;5032016;28;20929;-71
2021/12/26 02:59:23;;;;;;;17.58;7.60;;;;;;;-11.71;100.00;100679.00;5032877;28;20298;-71
2021/12/26 03:01:51;;;;;;;13.95;7.15;;;;;;;-11.59;100.00;100683.97;5034256;28;20279;-70
2021/12/26 03:04:17;;;;;;;17.25;9.20;;;;;;;-11.55;100.00;100673.34;5039123;28;20578;-71
2021/12/26 03:06:52;;;;;;;13.52;7.95;;;;;;;-11.57;100.00;100680.78;5021539;28;20206;-71
2021/12/26 03:09:19;;;;;;;12.35;7.07;;;;;;;-11.62;100.00;100680.47;5036890;28;20218;-71
2021/12/26 03:11:48;;;;;;;16.52;7.70;;;;;;;-11.55;100.00;100678.38;5048242;28;20272;-71
2021/12/26 03:14:14;;;;;;;13.98;8.05;;;;;;;-11.81;100.00;100683.47;5028534;28;20301;-70
2021/12/26 03:16:46;;;;;;;17.13;8.10;;;;;;;-11.94;100.00;100691.03;5033859;28;20272;-71
2021/12/26 03:19:13;;;;;;;11.88;7.53;;;;;;;-11.85;100.00;100681.53;5036995;28;20215;-71
2021/12/26 03:21:39;;;;;;;19.67;7.65;;;;;;;-11.74;100.00;100686.38;5034578;28;20231;-71
2021/12/26 03:24:06;;;;;;;12.88;7.35;;;;;;;-11.59;100.00;100687.34;5041544;28;20214;-71
2021/12/26 03:26:33;;;;;;;14.65;7.90;;;;;;;-11.53;100.00;100690.25;5037292;28;20210;-70
2021/12/26 03:29:00;;;;;;;14.85;7.20;;;;;;;-11.54;100.00;100692.69;5032522;28;20208;-71
2021/12/26 03:31:27;;;;;;;14.60;6.78;;;;;;;-11.54;100.00;100700.22;5031564;28;20252;-70
2021/12/26 03:33:53;;;;;;;16.17;8.48;;;;;;;-11.73;100.00;100698.16;5052538;28;20201;-70
2021/12/26 03:36:20;;;;;;;15.60;7.63;;;;;;;-11.63;100.00;100700.50;5029122;28;20214;-71
2021/12/26 03:38:46;;;;;;;15.77;7.57;;;;;;;-11.62;100.00;100698.09;5030001;28;20297;-71
2021/12/26 03:41:17;;;;;;;12.57;7.95;;;;;;;-11.71;100.00;100704.16;5019710;28;20651;-71
2021/12/26 03:43:52;;;;;;;15.05;7.60;;;;;;;-11.67;100.00;100699.44;5050272;28;20295;-71
2021/12/26 03:46:19;;;;;;;21.23;8.20;;;;;;;-12.32;100.00;100714.50;5041571;28;20623;-71
2021/12/26 03:48:46;;;;;;;15.90;7.97;;;;;;;-12.21;100.00;100711.06;5043444;28;20205;-71
2021/12/26 03:51:12;;;;;;;14.60;7.57;;;;;;;-12.38;100.00;100711.59;5046971;28;20246;-71
2021/12/26 03:53:39;;;;;;;14.02;7.63;;;;;;;-12.89;100.00;100709.78;5043103;28;20905;-71
2021/12/26 03:56:06;;;;;;;15.45;7.30;;;;;;;-13.01;100.00;100713.22;5041606;28;20659;-71
2021/12/26 03:58:34;;;;;;;19.63;9.00;;;;;;;-13.04;100.00;100707.09;5031777;28;20290;-71
2021/12/26 04:01:02;;;;;;;12.30;6.60;;;;;;;-12.87;100.00;100716.69;5034668;28;20232;-71
2021/12/26 04:03:30;;;;;;;12.68;6.97;;;;;;;-12.66;100.00;100714.75;5033825;28;20223;-70
2021/12/26 04:05:59;;;;;;;13.50;7.20;;;;;;;-12.58;100.00;100702.72;5029650;28;20215;-71
2021/12/26 04:08:28;;;;;;;13.88;7.25;;;;;;;-12.73;100.00;100705.06;5028492;28;20205;-70
2021/12/26 04:10:55;;;;;;;15.18;7.28;;;;;;;-12.61;100.00;100705.00;5029108;28;20229;-71
2021/12/26 04:13:21;;;;;;;11.00;5.25;;;;;;;-12.11;100.00;100704.16;5031758;28;20295;-70
2021/12/26 04:15:48;;;;;;;8.80;6.00;;;;;;;-12.16;100.00;100702.97;5031975;28;20219;-70
2021/12/26 04:18:15;;;;;;;16.40;6.82;;;;;;;-12.12;100.00;100699.88;5024258;28;20202;-71
2021/12/26 04:20:44;;;;;;;11.85;6.03;;;;;;;-12.06;100.00;100706.19;5036704;28;20264;-71
2021/12/26 04:23:12;;;;;;;16.45;6.50;;;;;;;-12.06;100.00;100708.69;5026384;28;20248;-70
2021/12/26 04:25:40;;;;;;;19.58;7.32;;;;;;;-11.68;100.00;100700.22;5027294;28;20244;-71
2021/12/26 04:28:06;;;;;;;9.10;5.25;;;;;;;-11.72;100.00;100697.41;5025854;28;20216;-70
2021/12/26 04:30:33;;;;;;;11.48;6.18;;;;;;;-11.81;100.00;100695.19;5026870;28;20846;-71
2021/12/26 04:33:01;;;;;;;13.85;6.45;;;;;;;-11.87;100.00;100693.13;5027202;28;20718;-71
2021/12/26 04:35:27;;;;;;;14.68;6.32;;;;;;;-11.65;100.00;100699.53;5027501;28;20228;-71
2021/12/26 04:37:55;;;;;;;14.10;7.05;;;;;;;-11.72;100.00;100697.41;5030868;28;20220;-71
2021/12/26 04:40:22;;;;;;;15.60;7.10;;;;;;;-11.60;100.00;100702.38;5029498;28;20264;-71
2021/12/26 04:43:07;;;;;;;15.43;6.43;;;;;;;-11.72;100.00;100702.44;5015860;28;20390;-71
2021/12/26 04:45:39;;;;;;;13.18;5.95;;;;;;;-11.50;100.00;100700.53;5029750;28;20215;-71
2021/12/26 04:48:27;;;;;;;14.50;5.88;;;;;;;-11.53;100.00;100695.28;5049263;28;20214;-71
2021/12/26 04:50:53;;;;;;;18.58;7.55;;;;;;;-11.64;100.00;100691.25;5031505;28;20235;-71
2021/12/26 04:53:21;;;;;;;12.40;6.85;;;;;;;-11.79;100.00;100690.25;5034952;28;20232;-70
2021/12/26 04:55:47;;;;;;;17.42;7.63;;;;;;;-11.91;100.00;100690.34;5031390;28;20670;-71
2021/12/26 04:58:14;;;;;;;15.57;7.60;;;;;;;-11.84;100.00;100693.31;5025886;28;20228;-70
2021/12/26 05:00:41;;;;;;;23.00;7.75;;;;;;;-11.91;100.00;100700.41;5028871;28;20243;-71
2021/12/26 05:03:08;;;;;;;13.48;6.50;;;;;;;-12.00;100.00;100698.16;5030275;28;20221;-71
2021/12/26 05:05:36;;;;;;;15.20;7.13;;;;;;;-11.78;100.00;100682.81;5039753;28;20217;-70
2021/12/26 05:08:02;;;;;;;11.10;6.15;;;;;;;-11.79;100.00;100688.59;5024724;28;20217;-71
2021/12/26 05:10:30;;;;;;;19.45;7.55;;;;;;;-11.73;100.00;100686.50;5029927;28;20221;-70
2021/12/26 05:12:59;;;;;;;14.10;6.82;;;;;;;-11.74;100.00;100686.38;5042127;28;20677;-71
2021/12/26 05:15:26;;;;;;;14.90;6.50;;;;;;;-11.50;100.00;100685.44;5043874;28;20202;-70
2021/12/26 05:17:53;;;;;;;13.05;6.47;;;;;;;-11.38;100.00;100679.41;5035344;28;20233;-70
2021/12/26 05:20:23;;;;;;;16.50;6.70;;;;;;;-11.58;100.00;100683.19;5025831;28;20230;-71
2021/12/26 05:22:51;;;;;;;13.65;6.50;;;;;;;-11.50;100.00;100682.91;5042621;28;20650;-71
2021/12/26 05:25:19;;;;;;;13.68;7.03;;;;;;;-11.44;100.00;100688.31;5020555;28;20216;-71
2021/12/26 05:27:48;;;;;;;12.30;7.15;;;;;;;-11.57;100.00;100682.41;5027892;28;20217;-71
2021/12/26 05:30:18;;;;;;;17.77;7.90;;;;;;;-11.43;100.00;100685.03;5027814;28;20263;-70
2021/12/26 05:32:46;;;;;;;18.33;8.27;;;;;;;-11.60;100.00;100685.63;5030550;28;20207;-71
2021/12/26 05:35:15;;;;;;;20.50;8.48;;;;;;;-11.78;100.00;100682.81;5032263;28;20227;-71
2021/12/26 05:37:42;;;;;;;26.80;7.55;;;;;;;-11.59;100.00;100683.97;5027440;28;20212;-70
2021/12/26 05:40:10;;;;;;;14.05;7.55;;;;;;;-11.62;100.00;100680.47;5022542;28;20779;-71
2021/12/26 05:42:39;;;;;;;18.23;8.00;;;;;;;-11.42;100.00;100678.34;5032063;28;20232;-70
2021/12/26 05:45:09;;;;;;;19.00;8.15;;;;;;;-11.83;100.00;100685.00;5042039;28;20313;-71
2021/12/26 05:47:44;;;;;;;16.17;7.57;;;;;;;-11.86;100.00;100691.50;5030109;28;20211;-70
2021/12/26 05:50:15;;;;;;;16.33;7.90;;;;;;;-11.85;100.00;100691.59;5025385;28;20213;-71
2021/12/26 05:52:42;;;;;;;13.57;7.10;;;;;;;-11.78;100.00;100685.31;5041317;28;20211;-70
2021/12/26 05:55:15;;;;;;;16.42;7.40;;;;;;;-11.65;100.00;100694.50;5039383;28;20302;-71
2021/12/26 05:57:43;;;;;;;17.67;8.05;;;;;;;-11.79;100.00;100696.13;5035025;28;20675;-70
2021/12/26 06:00:14;;;;;;;17.70;7.75;;;;;;;-11.88;100.00;100691.38;5022756;28;20301;-71
2021/12/26 06:02:43;;;;;;;18.48;7.90;;;;;;;-11.67;100.00;100689.38;5021741;28;20310;-71
2021/12/26 06:05:11;;;;;;;20.10;7.97;;;;;;;-11.80;100.00;100686.88;5026391;28;20242;-70
2021/12/26 06:07:39;;;;;;;20.10;7.75;;;;;;;-11.66;100.00;100680.19;5037112;28;20698;-71
2021/12/26 06:10:08;;;;;;;16.55;7.32;;;;;;;-11.73;100.00;100673.00;5035537;28;20321;-71
2021/12/26 06:12:38;;;;;;;23.67;9.68;;;;;;;-12.02;100.00;100682.13;5029262;28;20207;-70
2021/12/26 06:15:05;;;;;;;17.50;9.20;;;;;;;-11.94;100.00;100672.53;5026581;28;20641;-70
2021/12/26 06:17:36;;;;;;;15.13;8.27;;;;;;;-12.21;100.00;100672.50;5020136;28;20576;-70
2021/12/26 06:20:41;;;;;;;19.40;7.40;;;;;;;-12.23;100.00;100674.91;5028507;28;20237;-71
2021/12/26 06:23:26;;;;;;;23.58;9.35;;;;;;;-11.97;100.00;100674.88;5036168;28;20300;-70
2021/12/26 06:26:13;;;;;;;19.25;9.35;;;;;;;-12.16;100.00;100678.69;5032215;28;20218;-71
2021/12/26 06:28:44;;;;;;;17.90;8.27;;;;;;;-12.20;100.00;100681.78;5026025;28;20222;-71
2021/12/26 06:31:41;;;;;;;20.38;8.65;;;;;;;-12.42;100.00;100676.97;5027996;28;20232;-70
2021/12/26 06:34:17;;;;;;;22.58;9.07;;;;;;;-12.32;100.00;100680.97;5040285;28;20274;-70
2021/12/26 06:37:02;;;;;;;16.67;8.02;;;;;;;-12.06;100.00;100672.63;5030213;28;20207;-70
2021/12/26 06:39:47;;;;;;;16.55;8.50;;;;;;;-12.21;100.00;100675.88;5032867;28;20236;-70
2021/12/26 06:42:35;;;;;;;18.15;9.10;;;;;;;-12.05;100.00;100672.72;5031176;28;20230;-70
2021/12/26 06:45:20;;;;;;;19.52;9.32;;;;;;;-12.12;100.00;100677.25;5034288;28;20794;-70
2021/12/26 06:48:09;;;;;;;20.52;8.70;;;;;;;-11.83;100.00;100666.53;5038013;28;20204;-71
2021/12/26 06:50:39;;;;;;;21.80;8.90;;;;;;;-11.98;100.00;100673.13;5022592;28;20260;-71
2021/12/26 06:53:05;;;;;;;23.88;9.18;;;;;;;-11.91;100.00;100662.69;5040486;28;20692;-70
2021/12/26 06:55:32;;;;;;;23.33;8.85;;;;;;;-11.77;100.00;100669.44;5044524;28;20219;-70
2021/12/26 06:57:59;;;;;;;22.92;10.15;;;;;;;-12.06;100.00;100672.63;5041189;28;20587;-70
2021/12/26 07:00:25;;;;;;;22.85;8.77;;;;;;;-12.11;100.00;100674.84;5031719;28;20605;-70
2021/12/26 07:02:52;;;;;;;23.00;10.18;;;;;;;-11.88;100.00;100676.28;5041479;28;20230;-70
2021/12/26 07:05:19;;;;;;;17.63;9.05;;;;;;;-11.84;100.00;100679.88;5020742;28;20211;-70
2021/12/26 07:07:58;;;;;;;19.15;8.80;;;;;;;-12.10;100.00;100681.63;5035374;28;20212;-70
2021/12/26 07:10:25;;;;;;;28.35;10.05;;;;;;;-11.91;100.00;100686.19;5039294;28;20638;-71
2021/12/26 07:12:52;;;;;;;15.38;8.27;;;;;;;-11.86;100.00;100689.84;5027443;28;20215;-70
2021/12/26 07:15:39;;;;;;;18.90;9.90;;;;;;;-11.94;100.00;100698.59;5018547;28;20683;-71
2021/12/26 07:18:06;;;;;;;21.88;10.57;;;;;;;-12.14;100.00;100697.25;5015630;28;20295;-70
2021/12/26 07:20:36;;;;;;;24.55;11.23;;;;;;;-12.37;100.00;100698.25;5051901;28;20235;-70
2021/12/26 07:23:18;;;;;;;21.50;9.80;;;;;;;-12.81;100.00;100696.13;5030443;28;20862;-71
2021/12/26 07:25:47;;;;;;;26.48;10.38;;;;;;;-12.53;100.00;100695.50;5043112;28;20309;-70
2021/12/26 07:28:16;;;;;;;22.13;11.02;;;;;;;-12.54;100.00;100703.78;5027467;28;20208;-70
2021/12/26 07:31:01;;;;;;;25.48;10.65;;;;;;;-12.35;100.00;100703.38;5025845;28;20331;-70
2021/12/26 07:33:29;;;;;;;21.45;10.15;;;;;;;-12.20;100.00;100715.34;5036557;28;20291;-70
2021/12/26 07:36:01;;;;;;;23.67;9.98;;;;;;;-12.05;100.00;100707.06;5023887;28;20210;-70
2021/12/26 07:38:47;;;;;;;21.73;9.98;;;;;;;-11.87;100.00;100710.75;5030478;28;20724;-71
2021/12/26 07:41:14;;;;;;;30.38;13.45;;;;;;;-11.94;100.00;100705.22;5030070;28;20234;-70
2021/12/26 07:43:41;;;;;;;29.23;14.48;;;;;;;-12.18;100.00;100717.94;5028659;28;20239;-70
2021/12/26 07:46:44;;;;;;;42.42;17.35;;;;;;;-11.87;100.00;100714.88;4991728;28;20239;-70
2021/12/26 07:49:17;;;;;;;33.75;16.65;;;;;;;-11.70;100.00;100703.41;5017324;28;20211;-71
2021/12/26 07:52:09;;;;;;;31.60;13.43;;;;;;;-11.84;100.00;100707.53;5040953;28;20323;-70
2021/12/26 07:54:55;;;;;;;22.65;10.38;;;;;;;-11.96;100.00;100712.66;5027480;28;20232;-70
2021/12/26 07:57:44;;;;;;;24.77;11.48;;;;;;;-11.74;100.00;100717.44;5048309;28;20352;-70
2021/12/26 08:00:29;;;;;;;34.55;17.45;;;;;;;-11.63;100.00;100713.94;5026994;28;20741;-71
2021/12/26 08:02:57;;;;;;;23.58;13.15;;;;;;;-11.75;100.00;100717.34;5028525;28;20214;-73
2021/12/26 08:05:42;;;;;;;23.63;12.75;;;;;;;-11.68;100.00;100725.41;5026305;28;20208;-71
2021/12/26 08:08:22;;;;;;;23.63;11.80;;;;;;;-11.57;100.00;100723.56;5030333;28;20204;-70
2021/12/26 08:10:50;;;;;;;25.60;11.95;;;;;;;-11.36;100.00;100721.53;5046648;28;20234;-70
2021/12/26 08:13:17;;;;;;;25.48;11.23;;;;;;;-11.24;100.00;100732.38;5041569;28;20204;-71
2021/12/26 08:15:44;;;;;;;25.90;10.43;;;;;;;-11.09;100.00;100734.13;5040897;28;20288;-70
2021/12/26 08:18:10;;;;;;;23.77;10.88;;;;;;;-11.15;100.00;100732.09;5028980;28;20589;-70
2021/12/26 08:20:37;;;;;;;23.15;11.15;;;;;;;-11.46;100.00;100725.09;5033161;28;20225;-70
2021/12/26 08:23:04;;;;;;;22.35;10.23;;;;;;;-11.65;100.00;100728.09;5033932;28;20686;-71
2021/12/26 08:25:31;;;;;;;25.27;11.95;;;;;;;-11.78;100.00;100724.66;5039330;28;20207;-70
2021/12/26 08:27:58;;;;;;;26.83;11.00;;;;;;;-11.91;100.00;100715.50;5036356;28;20214;-71
2021/12/26 08:30:26;;;;;;;26.40;13.65;;;;;;;-11.59;100.00;100715.03;5029137;28;20685;-71
2021/12/26 08:32:54;;;;;;;38.63;15.77;;;;;;;-11.55;100.00;100711.94;5010432;28;20751;-71
2021/12/26 08:35:21;;;;;;;25.20;10.77;;;;;;;-11.68;100.00;100710.31;5026896;28;20217;-71
2021/12/26 08:37:48;;;;;;;27.67;12.23;;;;;;;-11.65;100.00;100715.50;5037869;28;20228;-71
2021/12/26 08:40:15;;;;;;;23.20;11.30;;;;;;;-11.54;100.00;100718.69;5022654;28;20666;-71
2021/12/26 08:42:42;;;;;;;32.22;14.55;;;;;;;-11.32;100.00;100725.13;5026609;28;20568;-71
2021/12/26 08:45:11;;;;;;;27.42;14.30;;;;;;;-11.52;100.00;100721.31;5026985;28;20219;-71
2021/12/26 08:47:38;;;;;;;32.83;13.93;;;;;;;-11.54;100.00;100723.72;5028790;28;20274;-70
2021/12/26 08:50:06;;;;;;;37.70;18.30;;;;;;;-11.50;100.00;100728.22;5034756;28;20477;-71
2021/12/26 08:52:32;;;;;;;27.20;12.47;;;;;;;-11.40;100.00;100731.31;5027560;28;20207;-71
2021/12/26 08:55:02;;;;;;;27.00;11.68;;;;;;;-11.25;100.00;100735.66;5023464;28;20448;-71
2021/12/26 08:57:29;;;;;;;21.73;12.20;;;;;;;-11.33;100.00;100730.91;5033198;28;20203;-71
2021/12/26 08:59:56;;;;;;;28.00;12.63;;;;;;;-11.34;100.00;100736.72;5036985;28;20472;-71
2021/12/26 09:02:27;;;;;;;36.93;14.93;;;;;;;-11.17;100.00;100741.16;5020723;28;20446;-71
2021/12/26 09:04:54;;;;;;;35.07;13.77;;;;;;;-11.09;100.00;100744.19;5031287;28;20476;-71
2021/12/26 09:07:20;;;;;;;46.20;23.73;;;;;;;-11.08;100.00;100736.72;5023093;28;20964;-71
2021/12/26 09:09:48;;;;;;;35.07;17.20;;;;;;;-10.71;100.00;100730.53;5027566;28;20448;-71
2021/12/26 09:12:14;;;;;;;35.43;15.60;;;;;;;-10.69;100.00;100736.56;5030945;28;20489;-71
2021/12/26 09:14:41;;;;;;;31.90;15.00;;;;;;;-10.47;100.00;100732.03;5034002;28;21171;-71
2021/12/26 09:17:08;;;;;;;28.30;13.40;;;;;;;-10.47;100.00;100733.69;5032695;28;20462;-71
2021/12/26 09:19:36;;;;;;;27.93;13.80;;;;;;;-10.57;100.00;100733.91;5028015;28;20461;-71
2021/12/26 09:22:06;;;;;;;32.23;13.53;;;;;;;-10.51;100.00;100731.78;5029078;28;20965;-71
2021/12/26 09:24:33;;;;;;;41.50;19.03;;;;;;;-10.63;100.00;100733.56;5026977;28;20489;-71
2021/12/26 09:27:00;;;;;;;29.47;14.20;;;;;;;-10.71;100.00;100743.13;5022765;28;20889;-71
2021/12/26 09:29:26;;;;;;;27.93;12.70;;;;;;;-10.63;100.00;100739.44;5036323;28;20945;-71
2021/12/26 09:31:53;;;;;;;25.83;12.90;;;;;;;-10.49;100.00;100743.66;5023924;28;20479;-71
2021/12/26 09:34:20;;;;;;;28.83;13.83;;;;;;;-10.43;100.00;100747.34;5028795;28;20469;-70
2021/12/26 09:36:49;;;;;;;31.67;13.23;;;;;;;-10.50;100.00;100746.09;5038761;28;20459;-71
2021/12/26 09:39:16;;;;;;;38.33;16.43;;;;;;;-10.42;100.00;100742.41;5022922;28;20466;-71
2021/12/26 09:41:43;;;;;;;34.13;14.93;;;;;;;-10.31;100.00;100741.34;5019352;28;20482;-71
2021/12/26 09:44:09;;;;;;;33.90;14.53;;;;;;;-10.34;100.00;100732.75;5024864;28;21243;-71
2021/12/26 09:46:37;;;;;;;36.97;15.77;;;;;;;-10.17;100.00;100733.72;5027475;28;20932;-71
2021/12/26 09:49:05;;;;;;;40.80;15.33;;;;;;;-10.13;100.00;100739.06;5034484;28;20453;-71
2021/12/26 09:51:32;;;;;;;35.13;15.80;;;;;;;-10.13;100.00;100730.59;5039399;28;21011;-71
2021/12/26 09:54:01;;;;;;;32.33;16.10;;;;;;;-10.09;100.00;100732.53;5026405;28;20455;-70
2021/12/26 09:56:27;;;;;;;37.50;16.43;;;;;;;-10.09;100.00;100728.34;5030956;28;20483;-69
2021/12/26 09:58:57;;;;;;;31.70;14.67;;;;;;;-9.88;100.00;100727.88;5027973;28;20459;-71
2021/12/26 10:01:32;;;;;;;36.97;15.73;;;;;;;-9.78;100.00;100727.63;5025063;28;20497;-71
2021/12/26 10:04:00;;;;;;;30.63;13.77;;;;;;;-9.83;100.00;100725.59;5024524;28;21001;-71
2021/12/26 10:06:32;;;;;;;28.87;14.80;;;;;;;-9.78;100.00;100725.09;5014430;28;20442;-71
2021/12/26 10:09:03;;;;;;;30.37;14.20;;;;;;;-9.82;100.00;100722.28;5023578;28;20454;-71
2021/12/26 10:11:31;;;;;;;32.63;14.03;;;;;;;-9.73;100.00;100716.09;5020232;28;20978;-70
2021/12/26 10:14:00;;;;;;;26.90;14.37;;;;;;;-9.66;100.00;100713.94;5030013;28;20450;-71
2021/12/26 10:16:28;;;;;;;31.83;14.90;;;;;;;-9.63;100.00;100717.50;5024103;28;20458;-71
2021/12/26 10:18:55;;;;;;;32.30;14.10;;;;;;;-9.61;100.00;100720.13;5025858;28;20467;-71
2021/12/26 10:21:29;;;;;;;27.47;13.30;;;;;;;-9.51;100.00;100717.34;5029058;28;20808;-71
2021/12/26 10:23:57;;;;;;;33.90;14.13;;;;;;;-9.43;100.00;100725.31;5027026;28;20480;-70
2021/12/26 10:26:29;;;;;;;33.07;17.33;;;;;;;-9.39;100.00;100724.69;5028552;28;20450;-71
2021/12/26 10:29:11;;;;;;;31.47;16.27;;;;;;;-9.40;100.00;100725.50;5022808;28;20467;-71
2021/12/26 10:31:43;;;;;;;28.10;14.17;;;;;;;-9.33;100.00;100718.34;5026206;28;21011;-70
2021/12/26 10:34:15;;;;;;;33.00;14.97;;;;;;;-9.25;100.00;100721.31;5024627;28;20951;-71
2021/12/26 10:36:44;;;;;;;49.33;26.43;;;;;;;-9.20;100.00;100717.38;5027542;28;20456;-71
2021/12/26 10:39:13;;;;;;;80.67;34.23;;;;;;;-9.11;100.00;100709.44;5026941;28;20457;-71
2021/12/26 10:41:47;;;;;;;34.70;17.97;;;;;;;-9.14;100.00;100710.13;5014802;28;20486;-71
2021/12/26 10:44:32;;;;;;;44.40;17.83;;;;;;;-9.15;100.00;100713.41;5019971;28;20934;-70
2021/12/26 10:47:00;;;;;;;30.97;13.30;;;;;;;-9.09;100.00;100710.38;5025498;28;20446;-70
2021/12/26 10:49:35;;;;;;;31.43;15.13;;;;;;;-9.03;100.00;100700.59;5020490;28;20779;-71
2021/12/26 10:52:09;;;;;;;27.67;13.67;;;;;;;-8.94;100.00;100705.28;5022202;28;20564;-71
2021/12/26 10:54:35;;;;;;;34.13;14.83;;;;;;;-8.86;100.00;100700.66;5025041;28;20542;-71
2021/12/26 10:57:06;;;;;;;35.30;13.90;;;;;;;-8.80;100.00;100706.00;5035184;28;20469;-71
2021/12/26 10:59:32;;;;;;;29.17;13.83;;;;;;;-8.71;100.00;100705.63;5031006;28;20458;-71
2021/12/26 11:01:59;;;;;;;32.37;16.40;;;;;;;-8.63;100.00;100699.31;5022871;28;20582;-71
2021/12/26 11:04:26;;;;;;;33.60;15.47;;;;;;;-8.56;100.00;100698.84;5026216;28;21366;-70
2021/12/26 11:07:03;;;;;;;32.23;14.57;;;;;;;-8.50;100.00;100693.25;5027972;28;20490;-70
2021/12/26 11:09:30;;;;;;;27.30;14.10;;;;;;;-8.45;100.00;100689.28;5023143;28;20463;-71
2021/12/26 11:12:10;;;;;;;27.63;14.00;;;;;;;-8.37;100.00;100690.53;5022727;28;20478;-72
2021/12/26 11:14:58;;;;;;;24.30;12.80;;;;;;;-8.27;100.00;100687.66;5024096;28;20459;-71